Time;durP1;ratioP1;P1;durP2;ratioP2;P2;SDS_P1;SDS_P2;PMS_P1;PMS_P2;Temp;Humidity;BMP_temperature;BMP_pressure;BME280_temperature;BME280_humidity;BME280_pressure;Samples;Min_cycle;Max_cycle;Signal;HPM_P1;HPM_P2
2023/04/05 00:01:37;;;;;;;;;;;;;;;0.86;51.02;92914.72;2049136;69;20420;-78
2023/04/05 00:04:03;;;;;;;;;;;;;;;0.77;51.02;92915.19;2049228;70;20059;-76
2023/04/05 00:06:29;;;;;;;;;;;;;;;0.70;50.75;92908.31;2049459;70;20047;-79
2023/04/05 00:08:57;;;;;;;;;;;;;;;0.69;51.83;92914.41;2048649;70;20073;-76
2023/04/05 00:11:24;;;;;;;;;;;;;;;0.68;51.58;92910.13;2048475;70;20128;-74
2023/04/05 00:13:52;;;;;;;;;;;;;;;0.69;51.71;92915.16;2049548;70;20066;-74
2023/04/05 00:16:19;;;;;;;;;;;;;;;0.55;52.25;92905.44;2050237;70;20199;-76
2023/04/05 00:18:48;;;;;;;;;;;;;;;0.57;52.27;92911.16;2049534;70;20096;-77
2023/04/05 00:21:21;;;;;;;;;;;;;;;0.68;52.27;92905.34;2049216;69;20106;-77
2023/04/05 00:23:47;;;;;;;;;;;;;;;0.54;52.39;92903.94;2049259;69;20055;-76
2023/04/05 00:26:13;;;;;;;;;;;;;;;0.56;52.70;92904.16;2048570;70;20047;-77
2023/04/05 00:28:44;;;;;;;;;;;;;;;0.63;51.65;92895.13;2048608;70;20078;-77
2023/04/05 00:31:10;;;;;;;;;;;;;;;0.59;52.53;92888.44;2048404;70;20047;-75
2023/04/05 00:33:36;;;;;;;;;;;;;;;0.51;52.23;92902.25;2049100;69;20055;-78
2023/04/05 00:36:14;;;;;;;;;;;;;;;0.37;51.52;92898.81;2049104;70;20461;-78
2023/04/05 00:38:40;;;;;;;;;;;;;;;0.29;52.57;92889.69;2048807;70;20516;-77
2023/04/05 00:41:06;;;;;;;;;;;;;;;0.35;52.26;92906.16;2048697;70;20055;-77
2023/04/05 00:43:32;;;;;;;;;;;;;;;0.29;52.94;92895.22;2048973;70;20119;-76
2023/04/05 00:45:57;;;;;;;;;;;;;;;0.24;53.31;92898.88;2048575;69;20071;-79
2023/04/05 00:48:23;;;;;;;;;;;;;;;0.29;53.07;92900.00;2048853;70;20147;-77
2023/04/05 00:50:49;;;;;;;;;;;;;;;0.20;52.21;92901.97;2048585;69;20050;-77
2023/04/05 00:53:16;;;;;;;;;;;;;;;0.26;52.82;92896.28;2048507;70;20051;-75
2023/04/05 00:55:42;;;;;;;;;;;;;;;0.34;53.97;92893.59;2048935;69;20063;-75
2023/04/05 00:58:09;;;;;;;;;;;;;;;0.36;53.53;92899.31;2048751;70;20047;-77
2023/04/05 01:00:38;;;;;;;;;;;;;;;0.33;52.47;92894.88;2048357;69;20518;-76
2023/04/05 01:03:06;;;;;;;;;;;;;;;0.31;53.14;92889.13;2051177;70;20079;-77
2023/04/05 01:05:37;;;;;;;;;;;;;;;0.20;53.33;92890.88;2050937;70;20151;-77
2023/04/05 01:08:03;;;;;;;;;;;;;;;0.26;53.43;92890.75;2048992;69;20051;-76
2023/04/05 01:10:32;;;;;;;;;;;;;;;0.15;53.70;92888.25;2048494;69;20150;-77
2023/04/05 01:12:59;;;;;;;;;;;;;;;0.25;53.47;92887.25;2048648;70;20059;-78
2023/04/05 01:15:25;;;;;;;;;;;;;;;0.30;53.32;92884.88;2049192;70;20050;-78
2023/04/05 01:17:52;;;;;;;;;;;;;;;0.25;52.99;92881.69;2048460;70;20051;-78
2023/04/05 01:20:19;;;;;;;;;;;;;;;0.21;52.70;92872.25;2048208;70;20108;-77
2023/04/05 01:23:05;;;;;;;;;;;;;;;0.08;53.54;92875.81;2050839;70;20071;-77
2023/04/05 01:25:46;;;;;;;;;;;;;;;0.04;53.58;92867.09;2048919;70;20057;-79
2023/04/05 01:28:15;;;;;;;;;;;;;;;0.03;54.23;92870.41;2048986;70;20488;-77
2023/04/05 01:30:43;;;;;;;;;;;;;;;0.00;53.65;92877.78;2048886;70;20142;-77
2023/04/05 01:33:09;;;;;;;;;;;;;;;-0.06;53.00;92861.28;2048974;70;20054;-72
2023/04/05 01:35:43;;;;;;;;;;;;;;;0.00;53.28;92863.94;2048883;70;20067;-73
2023/04/05 01:38:13;;;;;;;;;;;;;;;0.01;53.21;92861.91;2048404;69;20057;-72
2023/04/05 01:40:40;;;;;;;;;;;;;;;-0.05;53.41;92862.00;2048294;70;20566;-76
2023/04/05 01:43:15;;;;;;;;;;;;;;;-0.09;52.85;92862.38;2049331;70;20057;-78
2023/04/05 01:45:42;;;;;;;;;;;;;;;-0.18;52.54;92857.28;2048430;70;20153;-79
2023/04/05 01:48:11;;;;;;;;;;;;;;;-0.12;54.54;92857.91;2048857;70;20407;-74
2023/04/05 01:50:39;;;;;;;;;;;;;;;-0.08;53.25;92860.34;2048384;70;20479;-79
2023/04/05 01:53:07;;;;;;;;;;;;;;;-0.11;53.52;92858.63;2048750;70;20159;-71
2023/04/05 01:55:34;;;;;;;;;;;;;;;-0.10;53.19;92858.09;2048270;70;20574;-78
2023/04/05 01:58:00;;;;;;;;;;;;;;;-0.08;53.86;92871.41;2049042;69;20055;-72
2023/04/05 02:00:26;;;;;;;;;;;;;;;-0.19;53.47;92858.56;2048409;70;20062;-79
2023/04/05 02:02:52;;;;;;;;;;;;;;;-0.20;53.01;92859.84;2048397;70;20094;-79
2023/04/05 02:05:19;;;;;;;;;;;;;;;-0.18;53.43;92867.59;2049142;70;20063;-79
2023/04/05 02:07:45;;;;;;;;;;;;;;;-0.19;54.22;92858.56;2049394;70;20508;-78
2023/04/05 02:10:12;;;;;;;;;;;;;;;-0.20;55.66;92857.06;2049689;70;20138;-77
2023/04/05 02:12:38;;;;;;;;;;;;;;;-0.24;53.58;92861.44;2050373;70;20055;-74
2023/04/05 02:15:05;;;;;;;;;;;;;;;-0.30;55.50;92858.81;2049276;70;20096;-77
2023/04/05 02:17:38;;;;;;;;;;;;;;;-0.31;55.05;92849.03;2049031;70;20055;-73
2023/04/05 02:20:07;;;;;;;;;;;;;;;-0.32;54.24;92853.06;2049039;70;20086;-74
2023/04/05 02:22:33;;;;;;;;;;;;;;;-0.40;53.65;92853.00;2048924;70;20426;-74
2023/04/05 02:24:58;;;;;;;;;;;;;;;-0.32;53.77;92848.28;2048215;70;20058;-75
2023/04/05 02:27:24;;;;;;;;;;;;;;;-0.40;53.11;92843.94;2048841;70;20093;-78
2023/04/05 02:29:54;;;;;;;;;;;;;;;-0.39;54.13;92850.97;2048904;70;20575;-73
2023/04/05 02:32:20;;;;;;;;;;;;;;;-0.34;54.69;92842.53;2048600;70;20047;-77
2023/04/05 02:34:45;;;;;;;;;;;;;;;-0.35;54.26;92846.59;2048047;70;20047;-73
2023/04/05 02:37:11;;;;;;;;;;;;;;;-0.46;53.63;92837.78;2048001;69;20058;-78
2023/04/05 02:39:36;;;;;;;;;;;;;;;-0.44;54.15;92835.97;2048762;70;20124;-78
2023/04/05 02:42:02;;;;;;;;;;;;;;;-0.53;56.02;92831.63;2048025;70;20053;-79
2023/04/05 02:44:28;;;;;;;;;;;;;;;-0.46;55.05;92826.72;2048233;70;20099;-76
2023/04/05 02:46:54;;;;;;;;;;;;;;;-0.43;54.09;92831.94;2045346;70;20133;-78
2023/04/05 02:49:25;;;;;;;;;;;;;;;-0.50;55.56;92832.59;2048161;70;20476;-76
2023/04/05 02:51:54;;;;;;;;;;;;;;;-0.58;54.88;92829.75;2048161;70;20120;-75
2023/04/05 02:54:21;;;;;;;;;;;;;;;-0.62;55.69;92831.34;2048908;70;20511;-79
2023/04/05 02:56:48;;;;;;;;;;;;;;;-0.56;55.27;92829.19;2048652;70;20528;-79
2023/04/05 02:59:16;;;;;;;;;;;;;;;-0.62;55.05;92823.78;2049256;70;20066;-79
2023/04/05 03:01:43;;;;;;;;;;;;;;;-0.56;55.35;92823.66;2049039;70;20051;-73
2023/04/05 03:04:18;;;;;;;;;;;;;;;-0.62;55.25;92829.31;2048906;70;20059;-76
2023/04/05 03:06:47;;;;;;;;;;;;;;;-0.59;55.98;92825.50;2048688;69;20047;-77
2023/04/05 03:09:18;;;;;;;;;;;;;;;-0.54;54.68;92821.13;2048366;69;20055;-77
2023/04/05 03:11:46;;;;;;;;;;;;;;;-0.62;55.10;92821.03;2048422;70;20519;-78
2023/04/05 03:14:14;;;;;;;;;;;;;;;-0.69;55.14;92813.38;2047813;70;20157;-73
2023/04/05 03:16:43;;;;;;;;;;;;;;;-0.70;54.74;92828.47;2048181;70;20125;-78
2023/04/05 03:19:26;;;;;;;;;;;;;;;-0.75;55.18;92821.06;2048716;70;20169;-78
2023/04/05 03:21:57;;;;;;;;;;;;;;;-0.76;54.92;92822.34;2048786;70;20043;-78
2023/04/05 03:24:31;;;;;;;;;;;;;;;-0.68;55.00;92814.13;2049444;69;20055;-79
2023/04/05 03:27:05;;;;;;;;;;;;;;;-0.69;55.59;92815.41;2049428;70;20047;-79
2023/04/05 03:29:44;;;;;;;;;;;;;;;-0.80;55.66;92808.09;2050169;70;20061;-80
2023/04/05 03:32:22;;;;;;;;;;;;;;;-0.75;55.77;92809.25;2049975;69;20139;-79
2023/04/05 03:35:05;;;;;;;;;;;;;;;-0.88;55.18;92810.00;2047418;70;20062;-77
2023/04/05 03:37:33;;;;;;;;;;;;;;;-0.85;55.98;92809.69;2049121;69;20176;-76
2023/04/05 03:40:05;;;;;;;;;;;;;;;-0.88;55.60;92804.50;2049371;70;20224;-75
2023/04/05 03:42:31;;;;;;;;;;;;;;;-0.94;55.31;92807.38;2049929;70;20150;-76
2023/04/05 03:44:58;;;;;;;;;;;;;;;-0.93;55.68;92806.09;2049471;70;20156;-77
2023/04/05 03:47:25;;;;;;;;;;;;;;;-0.89;54.78;92800.25;2050464;69;20178;-72
2023/04/05 03:49:51;;;;;;;;;;;;;;;-0.96;55.19;92807.16;2049782;70;20539;-77
2023/04/05 03:52:17;;;;;;;;;;;;;;;-1.05;54.94;92796.56;2049513;69;20043;-73
2023/04/05 03:54:43;;;;;;;;;;;;;;;-1.04;54.52;92807.06;2048945;70;20483;-75
2023/04/05 03:57:10;;;;;;;;;;;;;;;-1.06;56.50;92806.84;2048764;70;20047;-76
2023/04/05 03:59:36;;;;;;;;;;;;;;;-0.99;56.28;92799.94;2048847;70;20089;-76
2023/04/05 04:02:07;;;;;;;;;;;;;;;-1.06;56.29;92797.81;2048921;70;20066;-80
2023/04/05 04:04:33;;;;;;;;;;;;;;;-1.16;55.01;92794.00;2048847;70;20066;-78
2023/04/05 04:07:06;;;;;;;;;;;;;;;-1.12;55.26;92794.44;2048703;70;20150;-81
2023/04/05 04:09:43;;;;;;;;;;;;;;;-1.10;55.59;92800.16;2049544;69;20580;-80
2023/04/05 04:12:10;;;;;;;;;;;;;;;-0.99;55.64;92802.69;2048980;70;20149;-77
2023/04/05 04:14:46;;;;;;;;;;;;;;;-1.01;55.29;92799.72;2049308;70;20183;-81
2023/04/05 04:17:32;;;;;;;;;;;;;;;-1.22;55.95;92802.41;2049530;70;20047;-80
2023/04/05 04:20:18;;;;;;;;;;;;;;;-1.23;57.28;92795.41;2048124;70;20098;-77
2023/04/05 04:22:52;;;;;;;;;;;;;;;-1.11;56.69;92793.16;2049445;70;20101;-78
2023/04/05 04:25:36;;;;;;;;;;;;;;;-1.21;57.52;92786.56;2049362;70;20500;-77
2023/04/05 04:28:24;;;;;;;;;;;;;;;-1.21;57.42;92792.84;2048851;70;20545;-76
2023/04/05 04:31:12;;;;;;;;;;;;;;;-1.24;56.84;92784.88;2048663;70;20201;-75
2023/04/05 04:33:52;;;;;;;;;;;;;;;-1.17;58.36;92781.47;2049265;70;20051;-77
2023/04/05 04:36:41;;;;;;;;;;;;;;;-1.24;57.28;92780.06;2049992;70;20128;-73
2023/04/05 04:39:26;;;;;;;;;;;;;;;-1.19;57.48;92784.78;2055635;69;20077;-76
2023/04/05 04:42:32;;;;;;;;;;;;;;;-1.24;56.88;92787.63;2064272;69;20142;-74
2023/04/05 04:45:15;;;;;;;;;;;;;;;-1.21;56.93;92786.56;2064344;69;20144;-74
2023/04/05 04:47:48;;;;;;;;;;;;;;;-1.11;57.07;92787.63;2058765;69;20145;-77
2023/04/05 04:50:18;;;;;;;;;;;;;;;-1.16;56.97;92780.94;2055733;70;20500;-71
2023/04/05 04:52:44;;;;;;;;;;;;;;;-1.25;57.55;92786.16;2068761;69;20051;-74
2023/04/05 04:55:13;;;;;;;;;;;;;;;-1.33;55.58;92775.00;2055713;70;20046;-74
2023/04/05 04:57:39;;;;;;;;;;;;;;;-1.21;56.84;92781.78;2055771;70;20089;-73
2023/04/05 05:00:11;;;;;;;;;;;;;;;-1.30;56.77;92782.22;2055742;70;20076;-73
2023/04/05 05:02:36;;;;;;;;;;;;;;;-1.31;56.60;92795.28;2068122;69;20058;-78
2023/04/05 05:05:03;;;;;;;;;;;;;;;-1.36;56.30;92784.34;2055925;70;20144;-79
2023/04/05 05:07:28;;;;;;;;;;;;;;;-1.38;56.33;92784.13;2055604;70;20088;-79
2023/04/05 05:09:54;;;;;;;;;;;;;;;-1.35;56.68;92781.06;2055333;70;20096;-71
2023/04/05 05:12:21;;;;;;;;;;;;;;;-1.31;58.38;92789.03;2055800;69;20497;-71
2023/04/05 05:14:46;;;;;;;;;;;;;;;-1.26;58.80;92784.66;2055712;69;20090;-74
2023/04/05 05:17:13;;;;;;;;;;;;;;;-1.29;58.13;92789.22;2055626;70;20147;-71
2023/04/05 05:19:38;;;;;;;;;;;;;;;-1.15;57.37;92789.97;2055489;70;20150;-70
2023/04/05 05:22:05;;;;;;;;;;;;;;;-1.25;57.17;92788.91;2055686;69;20165;-71
2023/04/05 05:24:30;;;;;;;;;;;;;;;-1.20;57.30;92791.56;2055640;70;20498;-75
2023/04/05 05:26:56;;;;;;;;;;;;;;;-1.19;56.65;92795.81;2055651;70;20061;-77
2023/04/05 05:29:21;;;;;;;;;;;;;;;-1.31;56.83;92800.06;2055640;70;20166;-73
2023/04/05 05:31:48;;;;;;;;;;;;;;;-1.31;56.99;92792.53;2068536;69;20119;-74
2023/04/05 05:34:13;;;;;;;;;;;;;;;-1.21;57.37;92798.38;2055703;70;20058;-72
2023/04/05 05:36:45;;;;;;;;;;;;;;;-1.25;57.19;92791.66;2066827;69;20077;-76
2023/04/05 05:39:10;;;;;;;;;;;;;;;-1.24;57.84;92802.19;2049754;70;20475;-78
2023/04/05 05:41:36;;;;;;;;;;;;;;;-1.18;56.89;92802.09;2049475;69;20079;-75
2023/04/05 05:44:05;;;;;;;;;;;;;;;-1.15;57.67;92803.78;2049645;70;20418;-78
2023/04/05 05:46:33;;;;;;;;;;;;;;;-1.14;56.60;92800.50;2049118;70;20051;-75
2023/04/05 05:48:59;;;;;;;;;;;;;;;-1.22;57.18;92807.94;2049559;70;20054;-74
2023/04/05 05:51:25;;;;;;;;;;;;;;;-1.24;58.37;92809.72;2049133;70;20106;-76
2023/04/05 05:53:51;;;;;;;;;;;;;;;-1.18;58.45;92807.63;2048634;70;20043;-74
2023/04/05 05:56:17;;;;;;;;;;;;;;;-1.25;58.45;92809.00;2048479;70;20138;-75
2023/04/05 05:58:42;;;;;;;;;;;;;;;-1.25;58.67;92809.00;2049043;70;20055;-78
2023/04/05 06:01:10;;;;;;;;;;;;;;;-1.21;58.72;92814.94;2049087;70;20150;-77
2023/04/05 06:03:37;;;;;;;;;;;;;;;-1.13;58.28;92818.56;2045612;70;20047;-80
2023/04/05 06:06:04;;;;;;;;;;;;;;;-1.05;58.59;92821.44;2049196;70;20506;-80
2023/04/05 06:08:30;;;;;;;;;;;;;;;-1.18;59.17;92816.66;2048964;70;20050;-78
2023/04/05 06:10:56;;;;;;;;;;;;;;;-1.23;59.70;92817.50;2049299;70;20043;-80
2023/04/05 06:13:22;;;;;;;;;;;;;;;-1.13;59.55;92820.56;2048909;70;20054;-81
2023/04/05 06:15:50;;;;;;;;;;;;;;;-1.02;59.12;92818.31;2048820;70;20113;-73
2023/04/05 06:18:15;;;;;;;;;;;;;;;-0.99;59.45;92815.78;2048409;70;20502;-77
2023/04/05 06:20:43;;;;;;;;;;;;;;;-0.97;58.95;92816.72;2048828;70;20124;-78
2023/04/05 06:23:11;;;;;;;;;;;;;;;-1.03;58.89;92822.38;2049104;70;20051;-77
2023/04/05 06:25:37;;;;;;;;;;;;;;;-1.02;58.79;92818.31;2049232;70;20051;-72
2023/04/05 06:28:03;;;;;;;;;;;;;;;-0.92;58.89;92817.88;2049003;70;20061;-73
2023/04/05 06:30:29;;;;;;;;;;;;;;;-0.92;58.57;92815.13;2048949;70;20042;-74
2023/04/05 06:32:54;;;;;;;;;;;;;;;-0.95;57.94;92811.41;2049017;70;20079;-72
2023/04/05 06:35:20;;;;;;;;;;;;;;;-0.83;57.95;92809.16;2048569;70;20223;-69
2023/04/05 06:37:46;;;;;;;;;;;;;;;-0.84;57.25;92808.41;2054379;70;20455;-73
2023/04/05 06:40:12;;;;;;;;;;;;;;;-0.80;58.27;92802.56;2057448;69;20049;-72
2023/04/05 06:42:37;;;;;;;;;;;;;;;-0.89;58.98;92806.50;2055741;70;20050;-80
2023/04/05 06:45:05;;;;;;;;;;;;;;;-0.84;58.77;92805.66;2066143;69;20442;-73
2023/04/05 06:47:34;;;;;;;;;;;;;;;-0.73;58.44;92801.91;2059552;70;20103;-73
2023/04/05 06:50:01;;;;;;;;;;;;;;;-0.67;58.67;92804.56;2061269;70;20056;-72
2023/04/05 06:52:27;;;;;;;;;;;;;;;-0.68;59.12;92801.06;2060856;69;20129;-75
2023/04/05 06:54:52;;;;;;;;;;;;;;;-0.22;60.46;92806.34;2060381;69;20485;-75
2023/04/05 06:57:18;;;;;;;;;;;;;;;0.39;59.77;92799.28;2060303;70;20146;-78
2023/04/05 06:59:43;;;;;;;;;;;;;;;0.76;58.16;92802.88;2059931;69;20058;-78
2023/04/05 07:02:08;;;;;;;;;;;;;;;1.18;56.36;92797.91;2058024;70;20500;-77
2023/04/05 07:04:35;;;;;;;;;;;;;;;1.54;56.21;92788.81;2056900;70;20138;-77
2023/04/05 07:07:01;;;;;;;;;;;;;;;1.77;54.15;92788.88;2069794;69;20077;-78
2023/04/05 07:09:29;;;;;;;;;;;;;;;1.99;55.76;92790.97;2070643;69;20057;-78
2023/04/05 07:11:56;;;;;;;;;;;;;;;1.87;55.49;92784.25;2059670;69;20525;-79
2023/04/05 07:14:21;;;;;;;;;;;;;;;1.87;54.62;92794.63;2057473;70;20054;-78
2023/04/05 07:16:47;;;;;;;;;;;;;;;2.24;52.89;92791.16;2057309;70;20046;-79
2023/04/05 07:19:13;;;;;;;;;;;;;;;2.66;53.29;92787.28;2057037;70;20081;-74
2023/04/05 07:21:38;;;;;;;;;;;;;;;2.45;53.00;92776.34;2058619;70;20046;-78
2023/04/05 07:24:05;;;;;;;;;;;;;;;2.92;52.58;92772.94;2057510;70;20047;-78
2023/04/05 07:26:33;;;;;;;;;;;;;;;3.30;51.96;92770.06;2056969;70;20124;-77
2023/04/05 07:28:59;;;;;;;;;;;;;;;3.68;50.11;92763.59;2057847;69;20051;-75
2023/04/05 07:31:24;;;;;;;;;;;;;;;3.36;49.86;92772.66;2057251;70;20514;-72
2023/04/05 07:33:50;;;;;;;;;;;;;;;3.47;49.23;92766.66;2056647;70;20050;-77
2023/04/05 07:36:15;;;;;;;;;;;;;;;4.10;47.77;92762.97;2056335;69;20057;-77
2023/04/05 07:38:41;;;;;;;;;;;;;;;4.34;48.29;92767.81;2068993;69;20050;-78
2023/04/05 07:41:06;;;;;;;;;;;;;;;4.10;48.34;92768.53;2056126;69;20571;-77
2023/04/05 07:43:32;;;;;;;;;;;;;;;4.96;46.76;92768.03;2056610;70;20066;-79
2023/04/05 07:46:04;;;;;;;;;;;;;;;4.63;46.82;92775.78;2057108;70;20054;-79
2023/04/05 07:48:29;;;;;;;;;;;;;;;5.27;45.56;92776.09;2057027;70;20123;-78
2023/04/05 07:50:55;;;;;;;;;;;;;;;5.01;45.39;92766.31;2056858;70;20082;-74
2023/04/05 07:53:20;;;;;;;;;;;;;;;5.68;43.35;92763.34;2055925;70;20150;-77
2023/04/05 07:55:46;;;;;;;;;;;;;;;6.11;42.48;92764.63;2056576;70;20056;-74
2023/04/05 07:58:11;;;;;;;;;;;;;;;6.20;42.55;92768.81;2056596;70;20053;-75
2023/04/05 08:00:37;;;;;;;;;;;;;;;6.39;42.30;92761.81;2056989;69;20130;-72
2023/04/05 08:03:03;;;;;;;;;;;;;;;6.07;41.09;92763.59;2055759;70;20046;-73
2023/04/05 08:05:29;;;;;;;;;;;;;;;6.43;40.76;92762.13;2055799;70;20558;-74
2023/04/05 08:07:56;;;;;;;;;;;;;;;6.71;41.51;92763.56;2055855;69;20169;-73
2023/04/05 08:10:25;;;;;;;;;;;;;;;7.25;40.59;92760.56;2056283;69;20050;-77
2023/04/05 08:12:55;;;;;;;;;;;;;;;7.86;40.03;92757.28;2055822;70;20077;-76
2023/04/05 08:15:20;;;;;;;;;;;;;;;7.01;37.82;92751.09;2056004;70;20050;-77
2023/04/05 08:17:45;;;;;;;;;;;;;;;7.25;39.07;92750.09;2055797;69;20055;-77
2023/04/05 08:20:11;;;;;;;;;;;;;;;7.68;38.70;92747.59;2055387;70;20062;-77
2023/04/05 08:22:36;;;;;;;;;;;;;;;6.70;37.74;92748.09;2055910;69;20057;-73
2023/04/05 08:25:02;;;;;;;;;;;;;;;7.95;38.69;92736.19;2055796;70;20100;-75
2023/04/05 08:27:27;;;;;;;;;;;;;;;8.58;37.63;92732.19;2055803;69;20478;-76
2023/04/05 08:29:53;;;;;;;;;;;;;;;8.35;35.61;92738.28;2056001;69;20058;-76
2023/04/05 08:32:18;;;;;;;;;;;;;;;8.14;36.32;92729.78;2055720;69;20046;-74
2023/04/05 08:34:44;;;;;;;;;;;;;;;7.85;36.49;92732.69;2055995;69;20055;-77
2023/04/05 08:37:09;;;;;;;;;;;;;;;8.95;36.28;92729.03;2055932;70;20510;-75
2023/04/05 08:39:35;;;;;;;;;;;;;;;9.75;34.38;92728.59;2055793;70;20169;-77
2023/04/05 08:42:03;;;;;;;;;;;;;;;9.29;34.66;92736.19;2055755;70;20046;-76
2023/04/05 08:44:29;;;;;;;;;;;;;;;7.85;34.75;92724.25;2055828;69;20058;-76
2023/04/05 08:46:57;;;;;;;;;;;;;;;8.86;34.16;92727.00;2055832;70;20066;-78
2023/04/05 08:49:22;;;;;;;;;;;;;;;8.90;33.83;92721.69;2052476;69;20057;-78
2023/04/05 08:51:47;;;;;;;;;;;;;;;10.13;33.04;92724.69;2055632;70;20157;-74
2023/04/05 08:54:13;;;;;;;;;;;;;;;9.31;32.82;92732.78;2055705;69;20562;-76
2023/04/05 08:56:40;;;;;;;;;;;;;;;8.36;33.23;92731.38;2068786;69;20047;-75
2023/04/05 08:59:07;;;;;;;;;;;;;;;8.88;32.43;92722.25;2055701;70;20074;-74
2023/04/05 09:01:40;;;;;;;;;;;;;;;9.79;31.57;92721.16;2068621;69;20062;-75
2023/04/05 09:04:08;;;;;;;;;;;;;;;9.36;31.51;92724.03;2055747;70;20219;-76
2023/04/05 09:06:34;;;;;;;;;;;;;;;11.01;33.04;92727.22;2055697;70;20422;-76
2023/04/05 09:09:00;;;;;;;;;;;;;;;11.58;32.52;92713.59;2055755;70;20053;-75
2023/04/05 09:11:26;;;;;;;;;;;;;;;12.09;30.39;92717.22;2055732;70;20078;-75
2023/04/05 09:13:51;;;;;;;;;;;;;;;11.92;30.07;92712.78;2055907;69;20097;-77
2023/04/05 09:16:18;;;;;;;;;;;;;;;10.66;30.67;92711.06;2055946;69;20121;-76
2023/04/05 09:18:43;;;;;;;;;;;;;;;11.68;29.21;92706.47;2056577;69;20114;-75
2023/04/05 09:21:09;;;;;;;;;;;;;;;11.56;28.13;92702.94;2071196;69;20153;-77
2023/04/05 09:23:36;;;;;;;;;;;;;;;12.03;28.66;92702.78;2068814;69;20070;-76
2023/04/05 09:26:21;;;;;;;;;;;;;;;11.84;27.67;92691.84;2055967;70;20192;-74
2023/04/05 09:28:50;;;;;;;;;;;;;;;12.29;29.69;92694.28;2068644;69;20088;-75
2023/04/05 09:31:48;;;;;;;;;;;;;;;12.67;28.92;92687.88;2055762;69;20470;-75
2023/04/05 09:34:19;;;;;;;;;;;;;;;12.52;27.61;92680.03;2057753;69;20137;-77
2023/04/05 09:36:44;;;;;;;;;;;;;;;11.20;30.67;92684.66;2057726;69;20046;-78
2023/04/05 09:39:10;;;;;;;;;;;;;;;12.14;28.01;92682.25;2057824;69;20123;-77
2023/04/05 09:41:35;;;;;;;;;;;;;;;13.40;30.46;92681.72;2057616;69;20089;-77
2023/04/05 09:44:01;;;;;;;;;;;;;;;13.68;27.72;92673.91;2057604;69;20076;-74
2023/04/05 09:46:40;;;;;;;;;;;;;;;13.22;26.81;92678.69;2054932;69;20050;-77
2023/04/05 09:49:08;;;;;;;;;;;;;;;12.86;26.61;92672.63;2057695;69;20053;-78
2023/04/05 09:51:35;;;;;;;;;;;;;;;14.47;28.18;92680.47;2057801;69;20062;-76
2023/04/05 09:54:04;;;;;;;;;;;;;;;15.46;27.96;92674.94;2054915;69;20068;-77
2023/04/05 09:56:32;;;;;;;;;;;;;;;13.64;24.91;92670.88;2057701;69;20138;-78
2023/04/05 09:59:00;;;;;;;;;;;;;;;15.05;26.10;92678.13;2054922;69;20152;-78
2023/04/05 10:01:27;;;;;;;;;;;;;;;14.45;26.13;92666.22;2057558;69;20076;-75
2023/04/05 10:03:53;;;;;;;;;;;;;;;16.11;26.13;92664.81;2057740;69;20490;-74
2023/04/05 10:06:18;;;;;;;;;;;;;;;16.60;24.20;92667.44;2057728;69;20046;-74
2023/04/05 10:08:57;;;;;;;;;;;;;;;16.96;24.74;92656.00;2057498;69;20486;-77
2023/04/05 10:11:23;;;;;;;;;;;;;;;17.42;23.39;92659.78;2068538;69;20520;-77
2023/04/05 10:13:49;;;;;;;;;;;;;;;16.22;24.22;92661.00;2055594;70;20054;-77
2023/04/05 10:16:19;;;;;;;;;;;;;;;16.73;23.73;92648.75;2068492;69;20240;-77
2023/04/05 10:18:48;;;;;;;;;;;;;;;17.30;23.33;92642.25;2055534;70;20057;-77
2023/04/05 10:21:14;;;;;;;;;;;;;;;18.40;22.76;92642.31;2055703;69;20063;-76
2023/04/05 10:23:44;;;;;;;;;;;;;;;19.12;22.81;92640.22;2055621;70;20133;-77
2023/04/05 10:26:15;;;;;;;;;;;;;;;18.35;20.53;92638.63;2056349;70;20394;-79
2023/04/05 10:28:46;;;;;;;;;;;;;;;18.15;20.82;92630.19;2068221;69;20054;-78
2023/04/05 10:31:30;;;;;;;;;;;;;;;20.46;19.72;92631.50;2055394;70;20167;-78
2023/04/05 10:34:05;;;;;;;;;;;;;;;20.24;21.50;92633.84;2055558;70;20522;-75
2023/04/05 10:36:44;;;;;;;;;;;;;;;21.57;20.44;92632.44;2055431;70;20101;-75
2023/04/05 10:39:12;;;;;;;;;;;;;;;20.11;20.00;92632.81;2055619;69;20054;-76
2023/04/05 10:41:41;;;;;;;;;;;;;;;22.50;19.28;92629.03;2055491;70;20055;-74
2023/04/05 10:44:09;;;;;;;;;;;;;;;23.59;18.38;92629.03;2055566;70;20051;-78
2023/04/05 10:46:35;;;;;;;;;;;;;;;24.80;18.34;92628.03;2068456;69;20097;-79
2023/04/05 10:49:20;;;;;;;;;;;;;;;25.73;16.73;92627.78;2055447;69;20034;-79
2023/04/05 10:51:46;;;;;;;;;;;;;;;24.90;16.56;92615.84;2055539;70;20076;-78
2023/04/05 10:54:16;;;;;;;;;;;;;;;26.96;15.48;92619.97;2055696;69;20134;-77
2023/04/05 10:56:42;;;;;;;;;;;;;;;27.02;14.66;92619.22;2055710;69;20062;-78
2023/04/05 10:59:08;;;;;;;;;;;;;;;25.68;15.13;92611.91;2055977;70;20057;-78
2023/04/05 11:01:34;;;;;;;;;;;;;;;25.17;15.04;92616.75;2068883;69;20485;-78
2023/04/05 11:04:10;;;;;;;;;;;;;;;28.60;13.10;92611.28;2069088;69;20401;-79
2023/04/05 11:06:35;;;;;;;;;;;;;;;29.21;13.36;92607.84;2055961;70;20066;-79
2023/04/05 11:09:21;;;;;;;;;;;;;;;26.98;14.50;92608.41;2055860;70;20405;-79
2023/04/05 11:11:48;;;;;;;;;;;;;;;28.62;13.03;92603.28;2056469;70;20523;-75
2023/04/05 11:14:24;;;;;;;;;;;;;;;26.24;12.97;92604.09;2057017;69;20058;-77
2023/04/05 11:16:55;;;;;;;;;;;;;;;27.71;12.56;92593.00;2055831;70;20053;-76
2023/04/05 11:19:39;;;;;;;;;;;;;;;27.03;13.35;92598.31;2068671;69;20505;-77
2023/04/05 11:22:22;;;;;;;;;;;;;;;29.60;11.24;92592.94;2056001;69;20074;-75
2023/04/05 11:24:52;;;;;;;;;;;;;;;26.69;13.43;92589.69;2055945;70;20145;-75
2023/04/05 11:27:28;;;;;;;;;;;;;;;31.63;11.57;92597.72;2056011;70;20082;-76
2023/04/05 11:29:54;;;;;;;;;;;;;;;31.74;10.70;92591.69;2055827;70;20123;-76
2023/04/05 11:32:20;;;;;;;;;;;;;;;27.40;10.50;92575.09;2055877;69;20062;-75
2023/04/05 11:35:04;;;;;;;;;;;;;;;32.64;10.51;92584.63;2055902;69;20078;-76
2023/04/05 11:37:48;;;;;;;;;;;;;;;32.58;10.56;92582.59;2055854;69;20133;-76
2023/04/05 11:40:23;;;;;;;;;;;;;;;29.58;10.06;92584.97;2055977;69;20076;-75
2023/04/05 11:42:56;;;;;;;;;;;;;;;27.90;11.14;92570.50;2055795;70;20052;-75
2023/04/05 11:45:22;;;;;;;;;;;;;;;34.05;9.73;92572.19;2055925;70;20065;-77
2023/04/05 11:47:47;;;;;;;;;;;;;;;29.73;10.63;92568.09;2055657;70;20061;-74
2023/04/05 11:50:13;;;;;;;;;;;;;;;34.75;9.38;92579.53;2055359;69;20046;-75
2023/04/05 11:52:39;;;;;;;;;;;;;;;31.12;9.28;92560.16;2055782;70;20570;-76
2023/04/05 11:55:05;;;;;;;;;;;;;;;33.62;7.80;92564.63;2055818;69;20197;-76
2023/04/05 11:57:30;;;;;;;;;;;;;;;34.87;8.34;92568.16;2055897;70;20533;-77
2023/04/05 11:59:55;;;;;;;;;;;;;;;31.66;9.55;92545.28;2055820;70;20498;-77
2023/04/05 12:02:21;;;;;;;;;;;;;;;32.68;9.82;92554.69;2055648;69;20089;-77
2023/04/05 12:04:54;;;;;;;;;;;;;;;32.05;9.21;92545.94;2055795;70;20469;-78
2023/04/05 12:07:20;;;;;;;;;;;;;;;32.39;9.26;92543.72;2055598;69;20103;-77
2023/04/05 12:10:06;;;;;;;;;;;;;;;27.54;9.79;92539.63;2055510;69;20074;-75
2023/04/05 12:12:38;;;;;;;;;;;;;;;29.15;9.21;92547.06;2055515;70;20055;-75
2023/04/05 12:15:04;;;;;;;;;;;;;;;29.73;9.76;92527.50;2055882;70;20042;-75
2023/04/05 12:17:43;;;;;;;;;;;;;;;29.05;10.56;92529.78;2055705;70;20066;-74
2023/04/05 12:20:10;;;;;;;;;;;;;;;29.97;9.46;92522.81;2055917;70;20261;-78
2023/04/05 12:22:37;;;;;;;;;;;;;;;28.17;9.69;92521.84;2055881;70;20121;-75
2023/04/05 12:25:03;;;;;;;;;;;;;;;31.84;9.67;92519.47;2055578;70;20048;-76
2023/04/05 12:27:28;;;;;;;;;;;;;;;32.78;9.23;92511.44;2055760;70;20062;-78
2023/04/05 12:30:16;;;;;;;;;;;;;;;30.52;9.60;92505.28;2055727;70;20057;-76
2023/04/05 12:32:43;;;;;;;;;;;;;;;32.41;10.12;92510.91;2055670;69;20474;-73
2023/04/05 12:35:12;;;;;;;;;;;;;;;27.76;9.79;92504.06;2055665;69;20054;-74
2023/04/05 12:37:39;;;;;;;;;;;;;;;29.87;9.60;92509.91;2055872;70;20065;-75
2023/04/05 12:40:05;;;;;;;;;;;;;;;30.38;8.90;92508.41;2068691;69;20050;-73
2023/04/05 12:42:37;;;;;;;;;;;;;;;29.61;9.04;92505.19;2055684;70;20433;-72
2023/04/05 12:45:04;;;;;;;;;;;;;;;33.44;9.03;92510.41;2055710;70;20061;-76
2023/04/05 12:47:31;;;;;;;;;;;;;;;33.62;8.71;92501.13;2055554;69;20069;-75
2023/04/05 12:49:56;;;;;;;;;;;;;;;31.46;8.68;92497.72;2055748;70;20054;-76
2023/04/05 12:52:25;;;;;;;;;;;;;;;33.45;8.63;92505.28;2068884;69;20119;-75
2023/04/05 12:54:54;;;;;;;;;;;;;;;31.94;9.33;92494.53;2056136;70;20492;-76
2023/04/05 12:57:32;;;;;;;;;;;;;;;31.24;8.84;92495.94;2055744;69;20192;-75
2023/04/05 12:59:57;;;;;;;;;;;;;;;32.35;10.10;92492.09;2055951;70;20042;-75